Laguna (440) Station Data

Red Flag Warning: Yes
Fire Weather Zone: 258
SDGE Region: Mountain Empire
Lat/Lon: 32.845/-116.472

Observations

Time Wind Speed/Gust Temp(F) RH Fuel Moist Fuel Temp(F) Dewpt(F) Tmax(F) Tmin(F) Accum Precip 10-min Precip SL Press(mb)
6/27 5:00pm 235 6 G 16 79° 14% - - 25° 82.6° 54° - - -
6/27 4:50pm 249 7 G 15 79° 13% - - 24° 82.6° 54° - - -
6/27 4:40pm 287 8 G 19 79° 13% - - 23° 82.6° 54° - - -
6/27 4:30pm 244 6 G 15 80° 13% - - 24° 82.6° 54° - - -
6/27 4:20pm 238 7 G 16 80° 13% - - 25° 82.6° 54° - - -
6/27 4:10pm 230 6 G 16 80° 13% - - 25° 82.6° 54° - - -
6/27 4:00pm 256 7 G 16 79° 13% - - 25° 82.6° 54° - - -
6/27 3:50pm 258 6 G 14 80° 14% - - 27° 82.6° 54° - - -
6/27 3:40pm 293 9 G 19 79° 14% - - 26° 82.6° 54° - - -
6/27 3:30pm 250 8 G 21 80° 15% - - 28° 82.6° 54° - - -
6/27 3:20pm 255 7 G 15 81° 14% - - 27° 82.6° 54° - - -
6/27 3:10pm 253 7 G 18 81° 14% - - 28° 82.6° 54° - - -
6/27 2:50pm 263 6 G 17 81° 14% - - 28° 82.6° 54° - - -
6/27 2:40pm 292 7 G 16 80° 16% - - 29° 82.6° 54° - - -
6/27 2:30pm 298 8 G 19 81° 14% - - 27° 82.6° 54° - - -
6/27 2:20pm 268 7 G 17 81° 13% - - 26° 82.6° 54° - - -
6/27 2:10pm 295 8 G 17 81° 13% - - 25° 82.6° 54° - - -
6/27 2:00pm 293 9 G 21 81° 12% - - 24° 82.6° 54° - - -
6/27 1:50pm 273 6 G 15 81° 12% - - 24° 82.3° 54° - - -
6/27 1:40pm 262 9 G 19 81° 11% - - 22° 82.3° 54° - - -
6/27 1:30pm 276 7 G 18 82° 11% - - 23° 82.3° 54° - - -
6/27 1:20pm 243 7 G 15 81° 11% - - 22° 82.3° 54° - - -
6/27 1:10pm 318 8 G 16 81° 11% - - 21° 82.3° 54° - - -
6/27 1:00pm 296 9 G 19 80° 10% - - 18° 82.3° 54° - - -
6/27 12:50pm 275 9 G 20 80° 10% - - 18° 82.3° 54° - - -
6/27 12:40pm 275 7 G 14 81° 10% - - 20° 82.3° 54° - - -
6/27 12:30pm 245 5 G 11 81° 10% - - 20° 82.3° 54° - - -
6/27 12:20pm 253 5 G 10 81° 10% - - 21° 82.3° 54° - - -
6/27 12:10pm 245 6 G 14 81° 10% - - 20° 81.2° 54° - - -
6/27 12:00pm 260 6 G 13 80° 11% - - 20° 81.1° 54° - - -
6/27 11:50am 273 6 G 15 80° 10% - - 20° 81° 54° - - -
6/27 11:40am 285 7 G 15 80° 10% - - 19° 81° 54° - - -
6/27 11:30am 294 5 G 17 80° 10% - - 19° 80.8° 54° - - -
6/27 11:20am 281 6 G 15 80° 10% - - 19° 80.8° 54° - - -
6/27 11:10am 240 6 G 11 79° 11% - - 20° 80° 54° - - -
6/27 11:00am 234 6 G 11 79° 11% - - 20° 79.6° 54° - - -
6/27 10:50am 242 6 G 14 78° 11% - - 19° 79.6° 54° - - -
6/27 10:40am 238 6 G 14 79° 11% - - 20° 79.6° 54° - - -
6/27 10:30am 253 5 G 15 78° 12% - - 21° 79.6° 54° - - -
6/27 10:20am 226 5 G 11 79° 11% - - 21° 79.6° 54° - - -
6/27 10:10am 249 4 G 12 78° 11% - - 20° 79.4° 54° - - -
6/27 10:00am 268 5 G 12 78° 11% - - 19° 79.4° 54° - - -
6/27 9:50am 250 3 G 8 78° 11% - - 20° 79.4° 54° - - -
6/27 9:40am 234 3 G 8 79° 12% - - 21° 79.2° 54° - - -
6/27 9:30am 239 4 G 9 78° 11% - - 19° 78.4° 54° - - -
6/27 9:20am 306 5 G 14 77° 11% - - 18° 77.6° 54° - - -
6/27 9:10am 330 5 G 15 77° 11% - - 18° 77.6° 54° - - -
6/27 9:00am 326 5 G 11 76° 11% - - 18° 76.5° 54° - - -
6/27 8:50am 261 4 G 12 76° 11% - - 17° 76.5° 54° - - -
6/27 8:40am 282 4 G 8 76° 11% - - 17° 76.5° 54° - - -
6/27 8:30am 249 3 G 9 76° 11% - - 17° 76.5° 54° - - -
6/27 8:20am 311 3 G 5 76° 11% - - 17° 75.9° 54° - - -
6/27 8:10am 239 2 G 6 75° 10% - - 16° 75.8° 54° - - -
6/27 8:00am 208 3 G 6 75° 11% - - 16° 75.6° 54° - - -
6/27 7:50am 200 1 G 4 75° 11% - - 17° 75.5° 54° - - -
6/27 7:40am 193 1 G 4 73° 12% - - 18° 74.6° 54° - - -
6/27 7:30am 156 2 G 3 71° 13% - - 19° 73.1° 54° - - -
6/27 7:20am 127 2 G 3 68° 17% - - 22° 73.1° 54° - - -
6/27 7:10am 102 3 G 4 66° 18% - - 21° 73.1° 54° - - -
6/27 7:00am 87 3 G 6 61° 23% - - 23° 73.1° 54° - - -
6/27 6:50am 115 2 G 4 58° 25% - - 23° 73.1° 54° - - -
6/27 6:40am 83 2 G 5 55° 27% - - 22° 73.1° 54° - - -
6/27 6:30am 82 2 G 5 55° 26% - - 21° 73.1° 54° - - -
6/27 6:20am 69 1 G 4 55° 25% - - 20° 73.1° 54° - - -
6/27 6:10am 120 1 G 3 55° 25% - - 20° 73.1° 54° - - -
6/27 6:00am 133 2 G 6 56° 22% - - 19° 73.1° 54.7° - - -
6/27 5:50am 87 1 G 4 55° 23% - - 19° 73.1° 54.7° - - -
6/27 5:40am 71 1 G 3 57° 22% - - 19° 73.1° 55.3° - - -
6/27 5:30am 107 2 G 4 58° 21% - - 18° 73.1° 55.3° - - -
6/27 5:20am 103 2 G 4 58° 21% - - 19° 73.1° 55.3° - - -
6/27 5:10am 124 2 G 4 58° 22% - - 19° 73.1° 55.3° - - -
6/27 5:00am 74 3 G 5 57° 22% - - 19° 73.1° 55.3° - - -
6/27 4:50am 107 2 G 4 57° 23% - - 20° 73.1° 55.3° - - -
6/27 4:40am 85 2 G 4 56° 24% - - 20° 73.1° 55.3° - - -
6/27 4:30am 90 2 G 4 58° 22% - - 19° 73.1° 57.6° - - -
6/27 4:20am 105 2 G 4 59° 21% - - 19° 73.1° 58.3° - - -
6/27 4:10am 110 2 G 4 60° 19% - - 19° 73.1° 59.5° - - -
6/27 4:00am 77 2 G 5 61° 19% - - 19° 73.1° 59.5° - - -
6/27 3:50am 108 2 G 4 62° 18% - - 18° 73.1° 59.5° - - -
6/27 3:40am 93 2 G 5 62° 19% - - 18° 73.1° 59.5° - - -
6/27 3:30am 85 2 G 5 61° 19% - - 19° 73.1° 59.5° - - -
6/27 3:20am 96 2 G 6 63° 18% - - 19° 73.1° 62.1° - - -
6/27 3:10am 77 2 G 5 65° 16% - - 18° 73.1° 63.2° - - -
6/27 3:00am 80 2 G 5 68° 14% - - 17° 73.1° 65.2° - - -
6/27 2:50am 79 2 G 5 68° 14% - - 17° 73.1° 65.2° - - -
6/27 2:40am 93 3 G 4 67° 14% - - 16° 73.1° 65.2° - - -
6/27 2:30am 67 3 G 7 67° 14% - - 16° 73.1° 65.2° - - -
6/27 2:20am 96 2 G 4 67° 14% - - 16° 73.1° 65.4° - - -
6/27 2:10am 86 1 G 4 68° 13% - - 16° 73.1° 66.9° - - -
6/27 2:00am 69 2 G 5 69° 13% - - 16° 73.1° 68.4° - - -
6/27 1:50am 70 3 G 5 70° 12% - - 16° 73.1° 68.8° - - -
6/27 1:40am 319 2 G 6 70° 12% - - 15° 73.1° 68.8° - - -
6/27 1:30am 39 2 G 7 69° 12% - - 14° 73.1° 68.8° - - -
6/27 1:20am 316 2 G 4 70° 10% - - 12° 73.1° 68.8° - - -
6/27 1:10am 327 2 G 7 69° 10% - - 11° 73.1° 68.8° - - -
6/27 1:00am 306 2 G 5 70° 10% - - 11° 73.1° 69° - - -
6/27 12:50am 299 2 G 5 71° 10% - - 11° 73.1° 69° - - -
6/27 12:40am 288 3 G 7 71° 10% - - 12° 73.1° 69° - - -
6/27 12:30am 13 2 G 6 70° 11% - - 13° 73.1° 69° - - -
6/27 12:20am 294 3 G 9 72° 10% - - 13° 73.1° 71.4° - - -
6/27 12:10am 318 2 G 7 73° 10% - - 13° 73.1° 71.8° - - -
6/27 12:00am 326 3 G 8 73° 10% - - 13° 87.5° 60.7° - - -
6/26 11:50pm 283 3 G 7 73° 10% - - 13° 87.5° 60.7° - - -
6/26 11:40pm 272 4 G 10 73° 10% - - 13° 87.5° 60.7° - - -
6/26 11:30pm 285 4 G 15 73° 10% - - 13° 87.5° 60.7° - - -
6/26 11:20pm 294 6 G 15 73° 10% - - 13° 87.5° 60.7° - - -
6/26 11:10pm 278 5 G 12 73° 10% - - 13° 87.5° 60.7° - - -
6/26 11:00pm 272 5 G 14 72° 10% - - 14° 87.5° 60.7° - - -
6/26 10:50pm 279 4 G 10 72° 11% - - 14° 87.5° 60.7° - - -
6/26 10:40pm 285 3 G 8 72° 11% - - 14° 87.5° 60.7° - - -
6/26 10:30pm 291 4 G 12 73° 11% - - 14° 87.5° 60.7° - - -
6/26 10:20pm 311 4 G 13 73° 10% - - 14° 87.5° 60.7° - - -
6/26 10:10pm 337 3 G 10 72° 11% - - 15° 87.5° 60.7° - - -
6/26 10:00pm 93 3 G 8 72° 11% - - 15° 87.5° 60.7° - - -
6/26 9:50pm 110 3 G 7 72° 11% - - 14° 87.5° 60.7° - - -
6/26 9:40pm 27 2 G 7 73° 10% - - 14° 87.5° 60.7° - - -
6/26 9:30pm 218 2 G 10 73° 11% - - 14° 87.5° 60.7° - - -
6/26 9:20pm 284 3 G 12 73° 11% - - 15° 87.5° 60.7° - - -
6/26 9:10pm 282 6 G 13 73° 11% - - 15° 87.5° 60.7° - - -
6/26 9:00pm 280 4 G 8 73° 10% - - 14° 87.5° 60.7° - - -
6/26 8:50pm 276 4 G 12 73° 10% - - 14° 87.5° 60.7° - - -
6/26 8:40pm 283 4 G 11 73° 11% - - 15° 87.5° 60.7° - - -
6/26 8:30pm 289 4 G 9 73° 12% - - 17° 87.5° 60.7° - - -
6/26 8:20pm 282 3 G 10 74° 14% - - 22° 87.5° 60.7° - - -
6/26 8:10pm 293 5 G 13 74° 16% - - 26° 87.5° 60.7° - - -
6/26 8:00pm 283 6 G 12 75° 16% - - 26° 87.5° 60.7° - - -
6/26 7:50pm 292 7 G 15 75° 15% - - 24° 87.5° 60.7° - - -
6/26 7:40pm 290 5 G 13 76° 14% - - 23° 87.5° 60.7° - - -
6/26 7:30pm 299 5 G 12 77° 13% - - 22° 87.5° 60.7° - - -
6/26 7:20pm 291 7 G 17 78° 12% - - 22° 87.5° 60.7° - - -
6/26 7:10pm 294 4 G 11 79° 12% - - 22° 87.5° 60.7° - - -
6/26 7:00pm 287 7 G 16 79° 11% - - 20° 87.5° 60.7° - - -
6/26 6:50pm 291 6 G 15 80° 10% - - 19° 87.5° 60.7° - - -
6/26 6:40pm 282 5 G 14 81° 10% - - 20° 87.5° 60.7° - - -
6/26 6:30pm 297 6 G 14 81° 11% - - 20° 87.5° 60.7° - - -
6/26 6:20pm 302 6 G 19 82° 11% - - 22° 87.5° 60.7° - - -
6/26 6:10pm 281 7 G 16 82° 11% - - 22° 87.5° 60.7° - - -
6/26 6:00pm 289 6 G 16 82° 11% - - 23° 87.5° 60.7° - - -
6/26 5:50pm 301 7 G 19 82° 11% - - 23° 87.5° 60.7° - - -
6/26 5:40pm 299 8 G 20 82° 11% - - 23° 87.5° 60.7° - - -
6/26 5:30pm 292 7 G 19 83° 11% - - 22° 87.5° 60.7° - - -
6/26 5:20pm 293 7 G 18 83° 11% - - 22° 87.5° 60.7° - - -
6/26 5:10pm 294 7 G 15 84° 11% - - 23° 87.5° 60.7° - - -
6/26 5:00pm 305 7 G 16 83° 11% - - 23° 87.5° 60.7° - - -
6/26 4:50pm 308 9 G 21 84° 11% - - 23° 87.5° 60.7° - - -
6/26 4:40pm 302 8 G 19 84° 11% - - 23° 87.5° 60.7° - - -
6/26 4:30pm 307 8 G 18 84° 11% - - 23° 87.5° 60.7° - - -
6/26 4:20pm 303 8 G 16 85° 11% - - 23° 87.5° 60.7° - - -
6/26 4:10pm 289 8 G 18 85° 11% - - 24° 87.5° 60.7° - - -
6/26 4:00pm 298 8 G 17 85° 11% - - 24° 87.5° 60.7° - - -
6/26 3:50pm 286 7 G 16 85° 11% - - 24° 87.5° 60.7° - - -
6/26 3:40pm 298 8 G 19 85° 11% - - 23° 87.5° 60.7° - - -
6/26 3:30pm 299 8 G 18 85° 11% - - 24° 87.5° 60.7° - - -
6/26 3:20pm 297 7 G 17 85° 11% - - 25° 87.5° 60.7° - - -
6/26 3:10pm 295 8 G 17 85° 11% - - 26° 87.5° 60.7° - - -
6/26 3:00pm 304 8 G 17 85° 11% - - 24° 87.5° 60.7° - - -
6/26 2:50pm 299 8 G 20 85° 11% - - 25° 87.5° 60.7° - - -
6/26 2:40pm 278 7 G 17 86° 11% - - 26° 87.5° 60.7° - - -
6/26 2:30pm 261 5 G 17 86° 11% - - 25° 87.5° 60.7° - - -
6/26 2:20pm 244 6 G 14 86° 11% - - 25° 87.5° 60.7° - - -
6/26 2:10pm 266 7 G 14 86° 11% - - 25° 87.5° 60.7° - - -
6/26 2:00pm 275 7 G 16 86° 11% - - 26° 87.5° 60.7° - - -
6/26 1:50pm 299 6 G 16 86° 11% - - 26° 87.5° 60.7° - - -
6/26 1:40pm 304 8 G 16 86° 11% - - 25° 87.5° 60.7° - - -
6/26 1:30pm 271 8 G 14 86° 11% - - 26° 87.5° 60.7° - - -
6/26 1:20pm 269 5 G 15 86° 11% - - 26° 87.5° 60.7° - - -
6/26 1:10pm 256 6 G 16 85° 11% - - 26° 87.5° 60.7° - - -
6/26 1:00pm 289 6 G 15 86° 11% - - 26° 87.5° 60.7° - - -
6/26 12:50pm 307 7 G 16 86° 11% - - 25° 87.5° 60.7° - - -
6/26 12:40pm 246 5 G 11 86° 11% - - 26° 87.5° 60.7° - - -
6/26 12:30pm 264 6 G 14 85° 12% - - 26° 85.6° 60.7° - - -
6/26 12:20pm 290 7 G 16 85° 12% - - 27° 85.6° 60.7° - - -
6/26 12:10pm 335 8 G 14 85° 12% - - 27° 85.6° 60.7° - - -
6/26 12:00pm 325 9 G 16 85° 12% - - 27° 85.6° 60.7° - - -
6/26 11:50am 308 10 G 19 85° 12% - - 26° 85.2° 60.7° - - -
6/26 11:40am 315 8 G 13 85° 12% - - 27° 85.2° 60.7° - - -
6/26 11:30am 319 8 G 16 85° 12% - - 26° 85.2° 60.7° - - -
6/26 11:20am 319 9 G 18 84° 12% - - 25° 85.2° 60.7° - - -
6/26 11:10am 314 8 G 17 84° 12% - - 26° 85.2° 60.7° - - -
6/26 11:00am 297 7 G 17 85° 12% - - 26° 85.2° 60.7° - - -
6/26 10:50am 296 7 G 15 84° 12% - - 27° 85.2° 60.7° - - -
6/26 10:40am 306 8 G 16 84° 12% - - 26° 84.8° 60.7° - - -
6/26 10:30am 289 8 G 14 84° 12% - - 26° 84.8° 60.7° - - -
6/26 10:20am 310 7 G 15 84° 12% - - 27° 84.8° 60.7° - - -
6/26 10:10am 294 7 G 14 84° 12% - - 26° 84.6° 60.7° - - -
6/26 10:00am 304 7 G 18 84° 12% - - 26° 84.6° 60.7° - - -
6/26 9:50am 307 6 G 13 84° 12% - - 27° 84.6° 60.7° - - -
6/26 9:40am 325 7 G 13 84° 13% - - 27° 84.2° 60.7° - - -
6/26 9:30am 337 8 G 15 83° 13% - - 27° 83.6° 60.7° - - -
6/26 9:20am 334 7 G 12 83° 13% - - 27° 83.6° 60.7° - - -
6/26 9:10am 337 6 G 12 83° 13% - - 27° 83.4° 60.7° - - -
6/26 9:00am 332 6 G 10 83° 13% - - 27° 83.1° 60.7° - - -
6/26 8:50am 340 5 G 11 82° 14% - - 27° 82.5° 60.7° - - -
6/26 8:40am 348 5 G 9 80° 14% - - 27° 81° 60.7° - - -
6/26 8:30am 352 4 G 7 80° 14% - - 27° 80.5° 60.7° - - -
6/26 8:20am 349 6 G 9 80° 14% - - 26° 80.5° 60.7° - - -
6/26 8:10am 348 5 G 8 80° 14% - - 26° 80.1° 60.7° - - -
6/26 8:00am 352 6 G 10 79° 14% - - 26° 79.5° 60.7° - - -
6/26 7:50am 359 5 G 10 79° 14% - - 26° 79.5° 60.7° - - -
6/26 7:40am 351 5 G 12 79° 14% - - 26° 79.5° 60.7° - - -
6/26 7:30am 355 5 G 10 79° 14% - - 25° 79.4° 60.7° - - -
6/26 7:20am 126 2 G 7 76° 19% - - 30° 78.5° 60.7° - - -
6/26 7:10am 183 2 G 5 72° 22% - - 30° 78.5° 60.7° - - -
6/26 7:00am 160 2 G 4 68° 25% - - 32° 78.5° 60.7° - - -
6/26 6:50am 165 2 G 4 67° 26% - - 31° 78.5° 60.7° - - -
6/26 6:40am 149 2 G 4 64° 29% - - 31° 78.5° 60.7° - - -
6/26 6:30am 147 2 G 4 62° 30% - - 31° 78.5° 60.7° - - -
6/26 6:20am 149 2 G 3 61° 31% - - 30° 78.5° 60.7° - - -
6/26 6:10am 119 1 G 3 61° 31% - - 30° 78.5° 60.7° - - -
6/26 6:00am 126 1 G 3 62° 29% - - 29° 78.5° 61.1° - - -